createdAt,value
2022-11-17T00:00:13.207Z,8.67
2022-11-17T00:02:40.251Z,8.07
2022-11-17T00:05:07.905Z,7.80
2022-11-17T00:07:34.988Z,9.63
2022-11-17T00:10:02.076Z,9.63
2022-11-17T00:12:47.556Z,8.83
2022-11-17T00:15:14.574Z,7.97
2022-11-17T00:17:41.516Z,8.27
2022-11-17T00:20:30.051Z,8.00
2022-11-17T00:22:57.057Z,7.73
2022-11-17T00:25:24.079Z,8.80
2022-11-17T00:27:51.099Z,8.00
2022-11-17T00:30:36.836Z,8.90
2022-11-17T00:33:23.201Z,8.80
2022-11-17T00:35:53.498Z,8.37
2022-11-17T00:38:20.641Z,9.53
2022-11-17T00:40:47.736Z,9.13
2022-11-17T00:43:14.798Z,9.50
2022-11-17T00:45:41.915Z,8.70
2022-11-17T00:48:08.871Z,8.33
2022-11-17T00:50:35.980Z,8.63
2022-11-17T00:53:03.035Z,8.90
2022-11-17T00:55:30.103Z,8.27
2022-11-17T00:57:57.163Z,8.33
2022-11-17T01:00:24.155Z,8.10
2022-11-17T01:02:51.137Z,7.87
2022-11-17T01:05:18.212Z,6.93
2022-11-17T01:07:46.877Z,7.50
2022-11-17T01:10:14.164Z,8.10
2022-11-17T01:12:41.156Z,8.00
2022-11-17T01:15:09.522Z,7.10
2022-11-17T01:17:36.619Z,8.13
2022-11-17T01:20:04.439Z,7.70
2022-11-17T01:22:31.384Z,6.87
2022-11-17T01:24:58.427Z,8.00
2022-11-17T01:27:25.432Z,7.83
2022-11-17T01:29:52.600Z,6.87
2022-11-17T01:32:19.580Z,7.67
2022-11-17T01:34:47.645Z,7.67
2022-11-17T01:37:20.468Z,7.80
2022-11-17T01:39:49.511Z,7.10
2022-11-17T01:42:24.665Z,7.33
2022-11-17T01:45:20.724Z,7.70
2022-11-17T01:48:01.499Z,7.13
2022-11-17T01:50:43.550Z,7.40
2022-11-17T01:53:22.236Z,7.57
2022-11-17T01:55:59.508Z,7.63
2022-11-17T01:58:39.956Z,7.10
2022-11-17T02:01:07.092Z,7.87
2022-11-17T02:03:36.587Z,7.53
2022-11-17T02:06:16.328Z,6.90
2022-11-17T02:08:46.907Z,7.60
2022-11-17T02:11:18.797Z,7.10
2022-11-17T02:13:46.267Z,7.50
2022-11-17T02:16:16.468Z,6.60
2022-11-17T02:18:45.452Z,6.83
2022-11-17T02:21:36.390Z,6.73
2022-11-17T02:24:55.939Z,7.07
2022-11-17T02:27:34.289Z,7.27
2022-11-17T02:30:16.701Z,6.80
2022-11-17T02:33:06.883Z,7.07
2022-11-17T02:36:07.025Z,7.57
2022-11-17T02:38:58.162Z,7.27
2022-11-17T02:41:34.841Z,7.60
2022-11-17T02:44:09.314Z,6.97
2022-11-17T02:46:57.793Z,7.43
2022-11-17T02:49:34.102Z,6.67
2022-11-17T02:52:02.404Z,7.37
2022-11-17T02:54:32.165Z,6.93
2022-11-17T02:56:59.984Z,7.03
2022-11-17T02:59:37.713Z,7.30
2022-11-17T03:02:28.007Z,6.80
2022-11-17T03:05:15.181Z,7.07
2022-11-17T03:08:09.221Z,6.87
2022-11-17T03:11:12.368Z,6.30
2022-11-17T03:14:07.016Z,7.03
2022-11-17T03:17:06.693Z,7.23
2022-11-17T03:19:44.736Z,6.77
2022-11-17T03:22:30.413Z,7.47
2022-11-17T03:25:06.810Z,6.87
2022-11-17T03:27:40.236Z,6.90
2022-11-17T03:30:10.442Z,7.27
2022-11-17T03:32:45.898Z,7.00
2022-11-17T03:35:23.770Z,7.13
2022-11-17T03:37:57.053Z,7.57
2022-11-17T03:40:30.038Z,7.50
2022-11-17T03:43:02.355Z,6.83
2022-11-17T03:45:44.226Z,6.03
2022-11-17T03:48:30.344Z,7.50
2022-11-17T03:51:11.223Z,7.17
2022-11-17T03:53:38.521Z,7.00
2022-11-17T03:57:04.321Z,7.70
2022-11-17T03:59:43.128Z,7.20
2022-11-17T04:02:19.415Z,7.53
2022-11-17T04:05:05.410Z,7.90
2022-11-17T04:07:42.702Z,8.00
2022-11-17T04:10:20.166Z,7.40
2022-11-17T04:13:07.839Z,7.60
2022-11-17T04:15:54.336Z,7.83
2022-11-17T04:18:22.939Z,7.87
2022-11-17T04:20:54.039Z,7.70
2022-11-17T04:23:22.533Z,7.87
2022-11-17T04:26:12.750Z,8.37
2022-11-17T04:28:46.551Z,7.73
2022-11-17T04:31:22.600Z,8.33
2022-11-17T04:33:57.128Z,8.07
2022-11-17T04:36:29.616Z,7.90
2022-11-17T04:38:59.656Z,7.73
2022-11-17T04:41:48.382Z,8.80
2022-11-17T04:44:17.765Z,7.63
2022-11-17T04:46:46.116Z,8.17
2022-11-17T04:49:16.375Z,7.50
2022-11-17T04:51:43.821Z,7.87
2022-11-17T04:54:15.217Z,8.07
2022-11-17T04:56:43.119Z,8.33
2022-11-17T04:59:10.589Z,8.97
2022-11-17T05:01:38.407Z,9.10
2022-11-17T05:04:09.872Z,8.67
2022-11-17T05:06:45.021Z,8.60
2022-11-17T05:09:16.608Z,9.33
2022-11-17T05:12:02.537Z,9.10
2022-11-17T05:14:30.346Z,8.60
2022-11-17T05:17:11.258Z,8.60
2022-11-17T05:19:47.256Z,9.07
2022-11-17T05:22:42.490Z,8.90
2022-11-17T05:25:10.218Z,8.60
2022-11-17T05:27:37.532Z,9.37
2022-11-17T05:30:07.986Z,9.30
2022-11-17T05:32:36.473Z,9.50
2022-11-17T05:35:03.730Z,8.80
2022-11-17T05:37:30.697Z,8.83
2022-11-17T05:39:57.733Z,9.17
2022-11-17T05:42:24.812Z,8.90
2022-11-17T05:44:51.860Z,9.27
2022-11-17T05:47:18.830Z,9.67
2022-11-17T05:49:48.577Z,9.80
2022-11-17T05:52:15.705Z,10.10
2022-11-17T05:54:42.892Z,9.33
2022-11-17T05:57:17.101Z,9.00
2022-11-17T05:59:59.606Z,9.73
2022-11-17T06:02:37.404Z,9.03
2022-11-17T06:05:05.794Z,9.50
2022-11-17T06:07:37.111Z,9.47
2022-11-17T06:10:05.008Z,9.53
2022-11-17T06:12:31.968Z,9.23
2022-11-17T06:14:59.009Z,9.43
2022-11-17T06:17:43.058Z,10.40
2022-11-17T06:20:28.051Z,10.10
2022-11-17T06:23:00.402Z,9.87
2022-11-17T06:25:28.419Z,10.33
2022-11-17T06:27:57.025Z,9.43
2022-11-17T06:30:24.390Z,10.07
2022-11-17T06:32:52.934Z,8.63
2022-11-17T06:35:20.164Z,10.13
2022-11-17T06:37:47.161Z,10.33
2022-11-17T06:40:14.638Z,10.47
2022-11-17T06:43:00.381Z,9.97
2022-11-17T06:45:27.377Z,10.10
2022-11-17T06:47:54.837Z,9.70
2022-11-17T06:50:22.233Z,10.23
2022-11-17T06:52:50.770Z,10.07
2022-11-17T06:55:18.558Z,10.13
2022-11-17T06:57:50.340Z,10.33
2022-11-17T07:00:20.763Z,10.07
2022-11-17T07:02:47.772Z,10.77
2022-11-17T07:05:17.989Z,10.87
2022-11-17T07:08:12.603Z,10.60
2022-11-17T07:10:41.645Z,10.17
2022-11-17T07:13:11.992Z,9.70
2022-11-17T07:15:39.071Z,10.50
2022-11-17T07:18:06.176Z,9.93
2022-11-17T07:20:33.243Z,10.40
2022-11-17T07:23:00.501Z,9.57
2022-11-17T07:25:39.496Z,10.33
2022-11-17T07:28:07.080Z,10.03
2022-11-17T07:30:35.002Z,9.57
2022-11-17T07:33:02.351Z,10.07
2022-11-17T07:35:31.728Z,9.63
2022-11-17T07:38:01.391Z,9.63
2022-11-17T07:40:30.932Z,8.80
2022-11-17T07:42:57.937Z,9.40
2022-11-17T07:45:28.666Z,9.10
2022-11-17T07:48:04.913Z,9.83
2022-11-17T07:50:33.476Z,9.03
2022-11-17T07:53:00.603Z,9.07
2022-11-17T07:55:28.106Z,9.23
2022-11-17T07:58:00.917Z,9.80
2022-11-17T08:00:31.768Z,9.40
2022-11-17T08:03:04.552Z,8.87
2022-11-17T08:05:40.089Z,9.37
2022-11-17T08:08:09.380Z,9.50
2022-11-17T08:10:36.855Z,9.47
2022-11-17T08:13:04.475Z,9.70
2022-11-17T08:15:31.919Z,10.33
2022-11-17T08:18:01.231Z,10.47
2022-11-17T08:20:29.543Z,9.73
2022-11-17T08:22:57.336Z,8.20
2022-11-17T08:25:26.998Z,10.03
2022-11-17T08:27:59.181Z,10.20
2022-11-17T08:30:26.835Z,10.40
2022-11-17T08:32:55.300Z,10.23
2022-11-17T08:35:26.594Z,10.27
2022-11-17T08:37:55.416Z,10.03
2022-11-17T08:40:22.645Z,10.77
2022-11-17T08:43:00.425Z,10.73
2022-11-17T08:45:28.744Z,10.30
2022-11-17T08:47:58.423Z,10.30
2022-11-17T08:50:26.773Z,10.70
2022-11-17T08:52:54.192Z,10.23
2022-11-17T08:55:21.304Z,10.17
2022-11-17T08:57:48.419Z,9.93
2022-11-17T09:00:16.637Z,10.10
2022-11-17T09:02:43.908Z,10.17
2022-11-17T09:05:10.846Z,9.63
2022-11-17T09:07:38.137Z,9.60
2022-11-17T09:10:06.319Z,10.23
2022-11-17T09:12:33.415Z,9.87
2022-11-17T09:15:00.453Z,10.20
2022-11-17T09:17:27.545Z,11.37
2022-11-17T09:20:11.638Z,10.10
2022-11-17T09:22:38.632Z,9.63
2022-11-17T09:25:11.875Z,9.77
2022-11-17T09:27:40.930Z,9.80
2022-11-17T09:30:09.171Z,9.53
2022-11-17T09:32:36.270Z,9.27
2022-11-17T09:35:07.012Z,8.77
2022-11-17T09:37:34.242Z,10.27
2022-11-17T09:40:01.277Z,9.77
2022-11-17T09:42:33.010Z,8.60
2022-11-17T09:45:27.952Z,9.30
2022-11-17T09:48:33.720Z,10.20
2022-11-17T09:50:50.498Z,9.23
2022-11-17T09:53:57.136Z,9.77
2022-11-17T09:56:27.264Z,8.80
2022-11-17T09:59:01.366Z,9.20
2022-11-17T10:01:29.671Z,8.67
2022-11-17T10:03:59.304Z,8.30
2022-11-17T10:06:31.448Z,8.23
2022-11-17T10:09:43.900Z,8.50
2022-11-17T10:12:23.733Z,8.33
2022-11-17T10:14:54.098Z,8.47
2022-11-17T10:17:21.191Z,8.67
2022-11-17T10:19:48.312Z,8.43
2022-11-17T10:22:36.747Z,7.97
2022-11-17T10:25:04.339Z,8.73
2022-11-17T10:27:35.215Z,8.37
2022-11-17T10:30:25.884Z,8.13
2022-11-17T10:32:57.076Z,7.93
2022-11-17T10:35:34.701Z,7.97
2022-11-17T10:38:20.955Z,7.80
2022-11-17T10:40:51.580Z,8.00
2022-11-17T10:43:28.762Z,7.90
2022-11-17T10:46:06.230Z,8.07
2022-11-17T10:48:54.250Z,8.07
2022-11-17T10:51:23.614Z,7.57
2022-11-17T10:54:20.907Z,7.83
2022-11-17T10:56:57.464Z,8.00
2022-11-17T10:59:42.298Z,6.83
2022-11-17T11:02:31.647Z,7.47
2022-11-17T11:05:21.200Z,6.83
2022-11-17T11:07:48.401Z,7.40
2022-11-17T11:10:26.993Z,7.77
2022-11-17T11:13:31.058Z,7.13
2022-11-17T11:15:58.417Z,7.97
2022-11-17T11:18:30.328Z,7.53
2022-11-17T11:21:14.848Z,7.40
2022-11-17T11:24:00.295Z,7.50
2022-11-17T11:26:56.815Z,7.30
2022-11-17T11:30:05.937Z,7.27
2022-11-17T11:33:18.318Z,7.50
2022-11-17T11:36:22.646Z,7.40
2022-11-17T11:39:37.981Z,7.33
2022-11-17T11:42:19.130Z,7.60
2022-11-17T11:45:18.036Z,7.40
2022-11-17T11:48:01.649Z,7.93
2022-11-17T11:50:53.297Z,7.90
2022-11-17T11:53:33.770Z,7.03
2022-11-17T11:56:35.972Z,7.73
2022-11-17T11:59:22.034Z,6.50
2022-11-17T12:02:06.001Z,7.80
2022-11-17T12:04:51.484Z,7.20
2022-11-17T12:07:48.462Z,7.30
2022-11-17T12:10:49.405Z,7.10
2022-11-17T12:13:22.609Z,7.00
2022-11-17T12:15:49.765Z,6.83
2022-11-17T12:18:19.403Z,7.07
2022-11-17T12:21:05.797Z,7.73
2022-11-17T12:24:20.646Z,7.23
2022-11-17T12:26:47.626Z,7.63
2022-11-17T12:29:20.273Z,7.10
2022-11-17T12:32:02.391Z,7.37
2022-11-17T12:34:40.170Z,7.57
2022-11-17T12:37:19.342Z,7.10
2022-11-17T12:40:02.159Z,7.67
2022-11-17T12:42:32.875Z,7.30
2022-11-17T12:45:04.460Z,7.23
2022-11-17T12:48:26.501Z,7.40
2022-11-17T12:51:55.567Z,7.47
2022-11-17T12:54:44.352Z,7.07
2022-11-17T12:57:25.396Z,7.70
2022-11-17T13:00:24.557Z,8.07
2022-11-17T13:03:17.527Z,7.63
2022-11-17T13:05:44.643Z,7.90
2022-11-17T13:08:23.374Z,7.40
2022-11-17T13:10:54.234Z,7.80
2022-11-17T13:13:25.463Z,7.93
2022-11-17T13:16:00.562Z,7.87
2022-11-17T13:18:43.159Z,7.97
2022-11-17T13:21:32.136Z,8.00
2022-11-17T13:28:32.174Z,8.17
2022-11-17T13:31:01.142Z,8.00
2022-11-17T13:33:30.935Z,7.47
2022-11-17T13:36:19.825Z,8.53
2022-11-17T13:38:50.302Z,8.23
2022-11-17T13:41:21.426Z,8.30
2022-11-17T13:43:50.440Z,7.87
2022-11-17T13:46:18.348Z,8.07
2022-11-17T13:48:48.970Z,8.30
2022-11-17T13:51:40.660Z,8.27
2022-11-17T13:54:18.606Z,7.93
2022-11-17T13:56:56.000Z,7.47
2022-11-17T13:59:33.839Z,7.50
2022-11-17T14:02:19.305Z,7.83
2022-11-17T14:05:13.396Z,8.20
2022-11-17T14:07:43.039Z,8.57
2022-11-17T14:10:21.934Z,9.10
2022-11-17T14:13:02.397Z,8.67
2022-11-17T14:15:47.950Z,9.23
2022-11-17T14:18:38.133Z,11.80
2022-11-17T14:21:17.293Z,11.90
2022-11-17T14:23:45.191Z,9.27
2022-11-17T14:26:25.260Z,10.27
2022-11-17T14:28:53.242Z,19.97
2022-11-17T14:31:20.507Z,105.17
2022-11-17T14:33:47.604Z,141.03
2022-11-17T14:36:17.315Z,32.07
2022-11-17T14:38:49.648Z,23.43
2022-11-17T14:41:18.904Z,17.83
2022-11-17T14:43:46.743Z,35.40
2022-11-17T14:46:26.386Z,35.70
2022-11-17T14:48:55.436Z,24.77
2022-11-17T14:51:22.987Z,24.00
2022-11-17T14:53:50.834Z,13.97
2022-11-17T14:56:22.696Z,14.67
2022-11-17T14:58:57.114Z,22.17
2022-11-17T15:01:34.690Z,13.50
2022-11-17T15:04:27.061Z,18.50
2022-11-17T15:06:51.768Z,20.47
2022-11-17T15:09:20.515Z,11.90
2022-11-17T15:11:48.207Z,11.43
2022-11-17T15:14:15.584Z,12.10
2022-11-17T15:16:43.118Z,12.63
2022-11-17T15:19:10.286Z,12.40
2022-11-17T15:21:37.379Z,13.03
2022-11-17T15:24:06.444Z,15.10
2022-11-17T15:26:34.100Z,21.70
2022-11-17T15:29:20.489Z,15.03
2022-11-17T15:31:48.069Z,11.93
2022-11-17T15:34:19.940Z,12.63
2022-11-17T15:36:48.960Z,12.10
2022-11-17T15:39:17.002Z,12.47
2022-11-17T15:41:45.160Z,12.13
2022-11-17T15:44:12.137Z,11.43
2022-11-17T15:46:44.342Z,11.70
2022-11-17T15:49:14.604Z,12.33
2022-11-17T15:51:41.775Z,12.13
2022-11-17T15:54:16.678Z,11.90
2022-11-17T15:56:47.578Z,12.73
2022-11-17T15:59:15.207Z,11.93
2022-11-17T16:01:42.524Z,13.20
2022-11-17T16:04:14.671Z,12.30
2022-11-17T16:06:44.958Z,12.93
2022-11-17T16:09:17.489Z,12.00
2022-11-17T16:11:47.483Z,12.13
2022-11-17T16:14:14.996Z,12.07
2022-11-17T16:16:43.674Z,11.50
2022-11-17T16:19:10.851Z,12.63
2022-11-17T16:21:38.629Z,12.77
2022-11-17T16:24:07.997Z,12.03
2022-11-17T16:26:35.761Z,11.80
2022-11-17T16:29:07.408Z,11.67
2022-11-17T16:31:36.629Z,11.33
2022-11-17T16:34:21.799Z,11.63
2022-11-17T16:36:48.830Z,11.43
2022-11-17T16:39:17.379Z,10.97
2022-11-17T16:41:46.573Z,12.00
2022-11-17T16:44:18.152Z,12.03
2022-11-17T16:46:50.091Z,12.53
2022-11-17T16:49:19.917Z,13.43
2022-11-17T16:52:10.469Z,12.47
2022-11-17T16:54:37.754Z,13.20
2022-11-17T16:57:04.918Z,12.83
2022-11-17T16:59:31.994Z,13.63
2022-11-17T17:01:59.044Z,13.60
2022-11-17T17:04:30.519Z,13.33
2022-11-17T17:06:58.357Z,13.27
2022-11-17T17:09:28.055Z,13.67
2022-11-17T17:12:02.815Z,13.93
2022-11-17T17:14:29.951Z,13.53
2022-11-17T17:16:57.217Z,13.80
2022-11-17T17:19:24.380Z,13.97
2022-11-17T17:21:52.924Z,13.83
2022-11-17T17:24:19.973Z,13.27
2022-11-17T17:26:47.472Z,20.23
2022-11-17T17:29:14.952Z,27.90
2022-11-17T17:31:42.718Z,23.37
2022-11-17T17:34:14.168Z,15.23
2022-11-17T17:36:41.449Z,15.83
2022-11-17T17:39:08.443Z,17.47
2022-11-17T17:41:40.815Z,15.50
2022-11-17T17:44:08.893Z,16.53
2022-11-17T17:46:38.647Z,15.00
2022-11-17T17:49:06.804Z,16.43
2022-11-17T17:51:44.217Z,15.93
2022-11-17T17:54:21.132Z,15.80
2022-11-17T17:56:48.822Z,16.50
2022-11-17T17:59:16.658Z,15.60
2022-11-17T18:01:46.108Z,16.47
2022-11-17T18:04:16.242Z,17.10
2022-11-17T18:06:48.251Z,15.93
2022-11-17T18:09:19.116Z,15.10
2022-11-17T18:11:50.064Z,17.60
2022-11-17T18:14:22.368Z,16.00
2022-11-17T18:16:50.986Z,15.93
2022-11-17T18:19:19.413Z,16.00
2022-11-17T18:21:46.881Z,15.30
2022-11-17T18:24:14.026Z,15.07
2022-11-17T18:26:47.515Z,14.13
2022-11-17T18:29:18.689Z,14.87
2022-11-17T18:31:47.570Z,13.47
2022-11-17T18:34:26.351Z,14.57
2022-11-17T18:36:55.791Z,13.17
2022-11-17T18:39:23.448Z,14.13
2022-11-17T18:41:50.723Z,14.27
2022-11-17T18:44:19.614Z,13.53
2022-11-17T18:46:50.420Z,14.83
2022-11-17T18:49:17.768Z,14.63
2022-11-17T18:51:45.768Z,14.63
2022-11-17T18:54:13.459Z,13.33
2022-11-17T18:56:40.587Z,14.13
2022-11-17T18:59:11.458Z,13.17
2022-11-17T19:01:42.195Z,14.03
2022-11-17T19:04:13.538Z,14.70
2022-11-17T19:06:40.914Z,13.83
2022-11-17T19:09:08.243Z,14.30
2022-11-17T19:11:35.319Z,14.00
2022-11-17T19:14:04.151Z,13.20
2022-11-17T19:16:32.781Z,14.57
2022-11-17T19:19:00.463Z,14.07
2022-11-17T19:21:31.669Z,14.60
2022-11-17T19:24:03.204Z,16.67
2022-11-17T19:26:34.139Z,14.10
2022-11-17T19:29:09.876Z,15.13
2022-11-17T19:31:39.863Z,14.33
2022-11-17T19:34:06.973Z,14.97
2022-11-17T19:36:34.617Z,14.77
2022-11-17T19:39:03.672Z,14.53
2022-11-17T19:41:38.209Z,15.17
2022-11-17T19:44:08.639Z,21.40
2022-11-17T19:46:36.904Z,16.47
2022-11-17T19:49:06.205Z,15.23
2022-11-17T19:51:36.853Z,15.20
2022-11-17T19:54:08.350Z,15.10
2022-11-17T19:56:39.349Z,15.43
2022-11-17T19:59:11.001Z,18.30
2022-11-17T20:01:41.132Z,16.30
2022-11-17T20:04:08.187Z,17.57
2022-11-17T20:06:38.301Z,16.53
2022-11-17T20:09:12.061Z,17.53
2022-11-17T20:11:40.147Z,17.33
2022-11-17T20:14:07.736Z,15.67
2022-11-17T20:16:36.656Z,16.13
2022-11-17T20:19:03.708Z,16.87
2022-11-17T20:21:31.424Z,14.20
2022-11-17T20:23:59.276Z,14.80
2022-11-17T20:26:31.876Z,17.17
2022-11-17T20:29:00.569Z,14.60
2022-11-17T20:31:32.110Z,16.00
2022-11-17T20:34:01.484Z,15.07
2022-11-17T20:36:32.631Z,14.40
2022-11-17T20:39:03.508Z,14.77
2022-11-17T20:41:31.326Z,14.93
2022-11-17T20:44:00.571Z,14.17
2022-11-17T20:46:28.191Z,13.67
2022-11-17T20:48:55.466Z,13.97
2022-11-17T20:51:25.202Z,14.20
2022-11-17T20:53:52.779Z,14.87
2022-11-17T20:56:20.303Z,14.63
2022-11-17T20:58:47.461Z,15.00
2022-11-17T21:01:21.588Z,13.97
2022-11-17T21:03:49.257Z,14.03
2022-11-17T21:06:16.778Z,13.43
2022-11-17T21:08:45.535Z,12.37
2022-11-17T21:11:41.881Z,14.37
2022-11-17T21:14:12.635Z,13.50
2022-11-17T21:16:45.504Z,13.33
2022-11-17T21:19:14.522Z,14.67
2022-11-17T21:21:43.685Z,14.10
2022-11-17T21:24:11.361Z,14.83
2022-11-17T21:26:38.510Z,14.13
2022-11-17T21:29:06.923Z,14.17
2022-11-17T21:31:43.978Z,13.73
2022-11-17T21:34:17.500Z,13.43
2022-11-17T21:36:44.625Z,13.87
2022-11-17T21:39:18.045Z,14.63
2022-11-17T21:41:45.743Z,15.10
2022-11-17T21:44:15.749Z,16.17
2022-11-17T21:46:42.842Z,14.63
2022-11-17T21:49:09.832Z,14.93
2022-11-17T21:51:38.470Z,14.87
2022-11-17T21:54:10.011Z,14.67
2022-11-17T21:56:37.745Z,14.63
2022-11-17T21:59:13.265Z,15.40
2022-11-17T22:01:40.680Z,15.37
2022-11-17T22:04:07.801Z,15.03
2022-11-17T22:06:35.106Z,15.57
2022-11-17T22:09:02.124Z,15.60
2022-11-17T22:11:37.678Z,15.00
2022-11-17T22:14:19.250Z,14.80
2022-11-17T22:16:51.879Z,14.97
2022-11-17T22:19:21.806Z,14.03
2022-11-17T22:21:52.569Z,14.70
2022-11-17T22:24:21.161Z,16.00
2022-11-17T22:26:48.811Z,15.17
2022-11-17T22:29:21.763Z,14.63
2022-11-17T22:31:50.529Z,14.57
2022-11-17T22:34:18.581Z,14.63
2022-11-17T22:36:46.022Z,15.13
2022-11-17T22:39:13.346Z,16.20
2022-11-17T22:41:40.365Z,15.13
2022-11-17T22:44:07.454Z,16.00
2022-11-17T22:46:36.065Z,15.73
2022-11-17T22:49:03.514Z,16.27
2022-11-17T22:51:49.376Z,13.87
2022-11-17T22:54:16.630Z,16.53
2022-11-17T22:56:43.610Z,15.40
2022-11-17T22:59:10.614Z,15.33
2022-11-17T23:01:38.037Z,16.53
2022-11-17T23:04:06.069Z,16.67
2022-11-17T23:06:33.154Z,16.17
2022-11-17T23:09:00.213Z,15.60
2022-11-17T23:11:43.404Z,15.73
2022-11-17T23:14:14.051Z,16.33
2022-11-17T23:16:41.274Z,15.80
2022-11-17T23:19:13.178Z,15.93
2022-11-17T23:21:40.788Z,16.10
2022-11-17T23:24:09.859Z,16.23
2022-11-17T23:26:36.859Z,15.10
2022-11-17T23:29:03.936Z,15.83
2022-11-17T23:31:30.943Z,14.73
2022-11-17T23:33:57.976Z,16.60
2022-11-17T23:36:25.143Z,15.83
2022-11-17T23:38:54.771Z,15.97
2022-11-17T23:41:21.914Z,16.97
2022-11-17T23:43:54.326Z,16.90
2022-11-17T23:46:26.336Z,15.77
2022-11-17T23:48:55.217Z,14.93
2022-11-17T23:51:26.744Z,16.20
2022-11-17T23:53:53.990Z,16.57
2022-11-17T23:56:21.569Z,16.97
2022-11-17T23:58:49.932Z,15.57
